createdAt,value
2023-04-19T00:00:39.433Z,11.20
2023-04-19T00:03:07.722Z,11.50
2023-04-19T00:05:35.529Z,12.10
2023-04-19T00:08:03.315Z,11.40
2023-04-19T00:10:30.525Z,11.00
2023-04-19T00:12:57.745Z,10.60
2023-04-19T00:15:24.972Z,10.70
2023-04-19T00:17:52.202Z,10.90
2023-04-19T00:20:20.602Z,11.40
2023-04-19T00:22:47.992Z,11.30
2023-04-19T00:25:15.243Z,11.70
2023-04-19T00:27:42.404Z,11.60
2023-04-19T00:30:09.952Z,11.80
2023-04-19T00:32:37.226Z,12.00
2023-04-19T00:35:04.714Z,11.40
2023-04-19T00:37:31.907Z,11.80
2023-04-19T00:39:59.074Z,11.60
2023-04-19T00:42:26.230Z,11.70
2023-04-19T00:44:53.405Z,11.80
2023-04-19T00:47:20.824Z,11.80
2023-04-19T00:49:48.139Z,12.10
2023-04-19T00:52:15.371Z,11.60
2023-04-19T00:54:44.051Z,11.70
2023-04-19T00:57:11.291Z,11.90
2023-04-19T00:59:38.566Z,12.00
2023-04-19T01:02:07.387Z,11.80
2023-04-19T01:04:34.818Z,11.90
2023-04-19T01:07:03.207Z,12.00
2023-04-19T01:09:30.360Z,11.70
2023-04-19T01:11:57.518Z,11.80
2023-04-19T01:14:24.697Z,11.90
2023-04-19T01:16:53.042Z,12.30
2023-04-19T01:19:21.290Z,11.90
2023-04-19T01:21:48.875Z,12.00
2023-04-19T01:24:16.237Z,11.80
2023-04-19T01:26:43.583Z,11.80
2023-04-19T01:29:25.533Z,11.90
2023-04-19T01:32:35.658Z,11.80
2023-04-19T01:35:02.961Z,11.80
2023-04-19T01:37:30.178Z,11.90
2023-04-19T01:39:57.361Z,12.10
2023-04-19T01:42:24.535Z,12.10
2023-04-19T01:44:51.716Z,12.30
2023-04-19T01:47:18.908Z,12.10
2023-04-19T01:49:46.071Z,12.30
2023-04-19T01:52:13.241Z,12.20
2023-04-19T01:54:40.461Z,12.20
2023-04-19T01:57:07.626Z,12.30
2023-04-19T01:59:34.789Z,12.20
2023-04-19T02:02:02.133Z,12.20
2023-04-19T02:04:30.509Z,12.30
2023-04-19T02:06:57.689Z,12.30
2023-04-19T02:09:24.888Z,12.10
2023-04-19T02:11:52.074Z,12.10
2023-04-19T02:14:19.258Z,12.20
2023-04-19T02:16:46.474Z,12.20
2023-04-19T02:19:13.987Z,12.10
2023-04-19T02:21:41.140Z,12.20
2023-04-19T02:24:08.483Z,12.10
2023-04-19T02:26:35.717Z,12.00
2023-04-19T02:29:04.508Z,11.90
2023-04-19T02:31:33.594Z,12.20
2023-04-19T02:34:00.804Z,11.90
2023-04-19T02:36:27.995Z,11.90
2023-04-19T02:38:55.208Z,11.60
2023-04-19T02:41:22.392Z,11.50
2023-04-19T02:43:49.558Z,11.80
2023-04-19T02:46:17.223Z,12.00
2023-04-19T02:48:44.444Z,12.10
2023-04-19T02:51:18.278Z,11.60
2023-04-19T02:53:45.524Z,11.30
2023-04-19T02:56:12.812Z,11.40
2023-04-19T02:58:39.986Z,11.60
2023-04-19T03:01:07.290Z,11.30
2023-04-19T03:03:34.617Z,11.50
2023-04-19T03:06:02.041Z,11.60
2023-04-19T03:08:29.393Z,11.30
2023-04-19T03:10:56.594Z,11.20
2023-04-19T03:13:23.746Z,11.20
2023-04-19T03:15:51.219Z,11.50
2023-04-19T03:18:18.466Z,10.70
2023-04-19T03:20:45.941Z,10.80
2023-04-19T03:23:13.083Z,10.80
2023-04-19T03:25:40.392Z,10.90
2023-04-19T03:28:07.574Z,10.90
2023-04-19T03:30:34.723Z,11.30
2023-04-19T03:33:01.957Z,11.40
2023-04-19T03:35:30.882Z,11.40
2023-04-19T03:37:58.288Z,11.30
2023-04-19T03:40:25.484Z,11.30
2023-04-19T03:42:52.684Z,11.10
2023-04-19T03:45:20.272Z,11.40
2023-04-19T03:47:47.486Z,11.50
2023-04-19T03:50:14.854Z,11.40
2023-04-19T03:52:42.100Z,10.90
2023-04-19T03:55:10.018Z,11.00
2023-04-19T03:57:37.333Z,11.00
2023-04-19T04:00:08.812Z,11.20
2023-04-19T04:02:39.840Z,11.30
2023-04-19T04:05:07.821Z,10.90
2023-04-19T04:07:35.116Z,10.80
2023-04-19T04:10:02.364Z,11.10
2023-04-19T04:12:29.533Z,11.40
2023-04-19T04:14:56.697Z,11.20
2023-04-19T04:17:24.516Z,11.10
2023-04-19T04:19:51.796Z,11.00
2023-04-19T04:22:19.028Z,10.70
2023-04-19T04:24:47.257Z,10.70
2023-04-19T04:27:14.843Z,10.70
2023-04-19T04:29:42.014Z,10.90
2023-04-19T04:32:10.620Z,11.10
2023-04-19T04:34:39.534Z,10.90
2023-04-19T04:37:08.661Z,10.70
2023-04-19T04:39:39.225Z,10.60
2023-04-19T04:42:08.824Z,10.90
2023-04-19T04:44:39.770Z,10.50
2023-04-19T04:47:07.173Z,11.10
2023-04-19T04:49:34.343Z,10.70
2023-04-19T04:52:01.557Z,11.20
2023-04-19T04:54:28.732Z,11.40
2023-04-19T04:56:55.937Z,11.50
2023-04-19T04:59:23.099Z,11.70
2023-04-19T05:01:50.659Z,11.90
2023-04-19T05:04:18.362Z,12.00
2023-04-19T05:06:45.888Z,11.70
2023-04-19T05:09:13.049Z,11.40
2023-04-19T05:11:40.419Z,11.50
2023-04-19T05:14:07.683Z,11.90
2023-04-19T05:16:34.915Z,11.80
2023-04-19T05:19:02.175Z,12.10
2023-04-19T05:21:29.386Z,12.20
2023-04-19T05:23:56.547Z,11.60
2023-04-19T05:26:23.717Z,11.80
2023-04-19T05:28:50.895Z,11.80
2023-04-19T05:31:18.226Z,11.80
2023-04-19T05:33:45.510Z,12.00
2023-04-19T05:36:13.008Z,11.70
2023-04-19T05:38:40.154Z,11.80
2023-04-19T05:41:07.326Z,11.90
2023-04-19T05:43:34.509Z,11.90
2023-04-19T05:46:01.729Z,12.00
2023-04-19T05:48:29.064Z,12.00
2023-04-19T05:50:58.011Z,12.00
2023-04-19T05:53:25.210Z,11.90
2023-04-19T05:55:52.665Z,12.10
2023-04-19T05:58:19.895Z,12.10
2023-04-19T06:00:48.848Z,12.10
2023-04-19T06:03:16.368Z,12.30
2023-04-19T06:05:43.816Z,12.30
2023-04-19T06:08:11.448Z,12.30
2023-04-19T06:10:51.761Z,12.30
2023-04-19T06:13:21.838Z,12.70
2023-04-19T06:15:49.788Z,12.60
2023-04-19T06:18:19.367Z,12.80
2023-04-19T06:20:47.388Z,12.50
2023-04-19T06:23:15.214Z,12.60
2023-04-19T06:25:42.632Z,12.60
2023-04-19T06:28:09.779Z,12.50
2023-04-19T06:30:37.045Z,12.40
2023-04-19T06:33:04.321Z,12.40
2023-04-19T06:35:32.305Z,12.80
2023-04-19T06:38:00.076Z,12.80
2023-04-19T06:40:29.310Z,12.70
2023-04-19T06:42:56.697Z,12.80
2023-04-19T06:45:23.995Z,12.80
2023-04-19T06:47:51.359Z,12.60
2023-04-19T06:50:18.694Z,12.90
2023-04-19T06:52:45.848Z,12.80
2023-04-19T06:55:13.201Z,12.70
2023-04-19T06:57:40.816Z,12.80
2023-04-19T07:00:08.629Z,12.70
2023-04-19T07:02:35.978Z,12.90
2023-04-19T07:05:03.796Z,13.10
2023-04-19T07:07:31.068Z,13.20
2023-04-19T07:09:58.276Z,13.10
2023-04-19T07:12:25.544Z,13.10
2023-04-19T07:14:56.376Z,13.30
2023-04-19T07:17:23.950Z,13.00
2023-04-19T07:19:51.290Z,13.20
2023-04-19T07:22:18.564Z,13.40
2023-04-19T07:24:45.791Z,13.50
2023-04-19T07:27:14.324Z,13.60
2023-04-19T07:29:41.539Z,13.60
2023-04-19T07:32:08.857Z,13.80
2023-04-19T07:34:37.883Z,14.00
2023-04-19T07:37:05.270Z,13.90
2023-04-19T07:39:32.606Z,13.60
2023-04-19T07:42:01.784Z,13.70
2023-04-19T07:44:29.029Z,14.00
2023-04-19T07:46:56.312Z,14.40
2023-04-19T07:49:23.655Z,14.10
2023-04-19T07:51:50.856Z,14.00
2023-04-19T07:54:20.142Z,13.50
2023-04-19T07:56:47.416Z,13.90
2023-04-19T07:59:14.579Z,14.00
2023-04-19T08:01:43.323Z,14.30
2023-04-19T08:04:10.981Z,14.10
2023-04-19T08:06:41.927Z,14.50
2023-04-19T08:09:12.130Z,14.00
2023-04-19T08:11:39.547Z,14.10
2023-04-19T08:14:18.684Z,14.60
2023-04-19T08:17:22.282Z,14.00
2023-04-19T08:19:44.304Z,14.60
2023-04-19T08:22:14.229Z,14.60
2023-04-19T08:24:41.746Z,14.00
2023-04-19T08:27:13.335Z,14.50
2023-04-19T08:29:49.880Z,14.30
2023-04-19T08:32:23.226Z,14.50
2023-04-19T08:34:50.755Z,14.50
2023-04-19T08:37:23.841Z,14.40
2023-04-19T08:39:54.267Z,14.20
2023-04-19T08:42:33.233Z,14.50
2023-04-19T08:50:28.319Z,14.60
2023-04-19T08:55:59.234Z,14.20
2023-04-19T09:01:26.235Z,14.80
2023-04-19T09:04:09.579Z,14.90
2023-04-19T09:06:51.480Z,14.60
2023-04-19T09:09:45.717Z,14.60
2023-04-19T09:12:19.442Z,14.10
2023-04-19T09:15:00.716Z,14.50
2023-04-19T09:17:30.507Z,14.00
2023-04-19T09:20:02.929Z,14.10
2023-04-19T09:22:39.709Z,13.90
2023-04-19T09:28:05.035Z,14.10
2023-04-19T09:30:35.964Z,14.70
2023-04-19T09:33:12.278Z,14.20
2023-04-19T09:35:43.568Z,14.10
2023-04-19T09:38:11.378Z,14.50
2023-04-19T09:40:47.178Z,15.00
2023-04-19T09:43:40.451Z,14.20
2023-04-19T09:46:15.017Z,13.60
2023-04-19T09:48:42.531Z,13.80
2023-04-19T09:51:12.954Z,14.10
2023-04-19T09:53:43.291Z,14.20
2023-04-19T09:56:13.919Z,14.20
2023-04-19T09:58:50.033Z,14.60
2023-04-19T10:01:20.792Z,14.50
2023-04-19T10:03:53.453Z,14.40
2023-04-19T10:06:36.008Z,14.90
2023-04-19T10:09:11.993Z,14.20
2023-04-19T10:11:48.257Z,14.40
2023-04-19T10:14:36.220Z,14.80
2023-04-19T10:17:06.373Z,14.30
2023-04-19T10:19:36.637Z,14.00
2023-04-19T10:22:07.904Z,14.60
2023-04-19T10:24:35.353Z,14.50
2023-04-19T10:27:14.846Z,14.80
2023-04-19T10:30:07.492Z,14.90
2023-04-19T10:32:42.418Z,15.20
2023-04-19T10:35:26.597Z,15.40
2023-04-19T10:38:15.290Z,15.10
2023-04-19T10:41:01.918Z,14.50
2023-04-19T10:43:30.461Z,13.90
2023-04-19T10:46:28.495Z,14.10
2023-04-19T10:49:03.725Z,14.60
2023-04-19T10:51:44.299Z,14.60
2023-04-19T10:54:36.641Z,15.00
2023-04-19T10:57:08.904Z,14.70
2023-04-19T10:59:42.462Z,14.00
2023-04-19T11:02:26.271Z,14.80
2023-04-19T11:04:53.956Z,15.10
2023-04-19T11:07:21.654Z,15.20
2023-04-19T11:09:50.302Z,15.40
2023-04-19T11:12:25.566Z,14.90
2023-04-19T11:15:00.174Z,15.00
2023-04-19T11:17:39.751Z,14.50
2023-04-19T11:20:14.792Z,15.20
2023-04-19T11:22:52.765Z,15.00
2023-04-19T11:25:24.202Z,15.20
2023-04-19T11:28:02.057Z,15.00
2023-04-19T11:30:38.425Z,14.90
2023-04-19T11:33:09.090Z,15.10
2023-04-19T11:35:39.883Z,15.20
2023-04-19T11:38:07.613Z,15.30
2023-04-19T11:40:40.230Z,15.10
2023-04-19T11:43:07.687Z,15.50
2023-04-19T11:45:39.579Z,15.10
2023-04-19T11:48:14.208Z,15.50
2023-04-19T11:50:43.453Z,15.10
2023-04-19T11:53:22.319Z,15.20
2023-04-19T11:55:51.561Z,15.40
2023-04-19T11:58:39.990Z,15.30
2023-04-19T12:01:13.315Z,15.30
2023-04-19T12:03:50.607Z,15.30
2023-04-19T12:06:27.092Z,14.80
2023-04-19T12:08:58.524Z,15.10
2023-04-19T12:11:42.064Z,15.20
2023-04-19T12:14:10.686Z,14.90
2023-04-19T12:16:38.977Z,14.90
2023-04-19T12:19:18.082Z,15.50
2023-04-19T12:21:48.994Z,15.30
2023-04-19T12:24:20.450Z,15.10
2023-04-19T12:26:59.068Z,15.30
2023-04-19T12:29:33.577Z,15.00
2023-04-19T12:32:06.583Z,15.30
2023-04-19T12:37:23.320Z,15.30
2023-04-19T12:39:53.739Z,15.70
2023-04-19T12:42:36.606Z,15.90
2023-04-19T12:45:18.142Z,15.80
2023-04-19T12:47:56.441Z,15.50
2023-04-19T12:50:31.453Z,15.90
2023-04-19T12:53:17.005Z,15.50
2023-04-19T12:55:49.253Z,15.10
2023-04-19T12:58:18.087Z,15.50
2023-04-19T13:00:48.819Z,15.50
2023-04-19T13:03:19.342Z,15.40
2023-04-19T13:05:52.395Z,15.70
2023-04-19T13:08:41.423Z,15.60
2023-04-19T13:11:11.243Z,15.30
2023-04-19T13:13:41.196Z,15.20
2023-04-19T13:16:11.583Z,15.40
2023-04-19T13:18:39.384Z,15.80
2023-04-19T13:21:08.447Z,15.50
2023-04-19T13:23:36.491Z,15.50
2023-04-19T13:26:09.066Z,15.70
2023-04-19T13:28:40.213Z,15.40
2023-04-19T13:31:07.661Z,15.30
2023-04-19T13:33:35.286Z,15.50
2023-04-19T13:36:02.800Z,15.90
2023-04-19T13:38:30.511Z,15.70
2023-04-19T13:41:03.991Z,16.10
2023-04-19T13:43:34.546Z,15.70
2023-04-19T13:46:10.216Z,15.90
2023-04-19T13:48:40.284Z,16.20
2023-04-19T13:51:08.442Z,16.70
2023-04-19T13:53:40.564Z,17.10
2023-04-19T13:56:09.876Z,17.80
2023-04-19T13:58:37.453Z,17.90
2023-04-19T14:01:04.857Z,17.50
2023-04-19T14:03:32.561Z,17.00
2023-04-19T14:05:59.988Z,16.90
2023-04-19T14:08:27.173Z,16.20
2023-04-19T14:10:54.558Z,16.30
2023-04-19T14:13:21.779Z,16.30
2023-04-19T14:15:48.981Z,16.20
2023-04-19T14:18:16.220Z,16.10
2023-04-19T14:20:43.463Z,15.90
2023-04-19T14:23:16.320Z,15.50
2023-04-19T14:25:46.571Z,15.90
2023-04-19T14:28:17.032Z,15.70
2023-04-19T14:30:46.895Z,15.50
2023-04-19T14:33:17.384Z,15.90
2023-04-19T14:35:48.602Z,15.60
2023-04-19T14:38:18.225Z,15.50
2023-04-19T14:40:52.946Z,14.90
2023-04-19T14:43:22.578Z,14.90
2023-04-19T14:45:57.642Z,15.10
2023-04-19T14:48:30.053Z,15.30
2023-04-19T14:50:57.219Z,15.30
2023-04-19T14:53:24.443Z,15.10
2023-04-19T14:55:51.621Z,15.20
2023-04-19T14:58:18.796Z,15.10
2023-04-19T15:00:46.317Z,15.10
2023-04-19T15:03:13.852Z,15.00
2023-04-19T15:05:41.282Z,15.40
2023-04-19T15:08:17.401Z,15.10
2023-04-19T15:10:54.251Z,15.30
2023-04-19T15:13:21.612Z,15.10
2023-04-19T15:15:48.923Z,14.90
2023-04-19T15:18:16.243Z,14.80
2023-04-19T15:20:43.698Z,14.70
2023-04-19T15:23:10.871Z,14.80
2023-04-19T15:25:38.121Z,14.60
2023-04-19T15:28:05.526Z,14.80
2023-04-19T15:30:32.727Z,14.80
2023-04-19T15:33:00.047Z,15.00
2023-04-19T15:35:27.286Z,14.80
2023-04-19T15:37:54.481Z,14.60
2023-04-19T15:40:23.058Z,14.80
2023-04-19T15:42:50.238Z,14.60
2023-04-19T15:45:17.525Z,15.20
2023-04-19T15:47:44.738Z,15.10
2023-04-19T15:50:11.996Z,14.60
2023-04-19T15:52:39.242Z,14.70
2023-04-19T15:55:06.735Z,14.80
2023-04-19T15:57:33.927Z,14.30
2023-04-19T16:00:01.092Z,14.70
2023-04-19T16:02:28.427Z,14.50
2023-04-19T16:04:55.941Z,14.60
2023-04-19T16:07:23.244Z,14.60
2023-04-19T16:09:50.599Z,14.40
2023-04-19T16:12:17.889Z,14.90
2023-04-19T16:14:45.071Z,13.80
2023-04-19T16:17:12.254Z,14.50
2023-04-19T16:19:39.452Z,14.40
2023-04-19T16:22:06.628Z,14.10
2023-04-19T16:24:33.852Z,14.10
2023-04-19T16:27:01.306Z,14.00
2023-04-19T16:29:28.566Z,14.00
2023-04-19T16:31:55.799Z,14.10
2023-04-19T16:34:25.357Z,13.90
2023-04-19T16:36:55.938Z,13.70
2023-04-19T16:39:23.118Z,13.60
2023-04-19T16:41:50.376Z,13.60
2023-04-19T16:44:17.637Z,13.30
2023-04-19T16:46:44.815Z,13.10
2023-04-19T16:49:12.087Z,12.90
2023-04-19T16:51:39.331Z,13.40
2023-04-19T16:54:06.610Z,13.60
2023-04-19T16:56:33.869Z,13.60
2023-04-19T16:59:01.348Z,13.40
2023-04-19T17:01:28.632Z,13.00
2023-04-19T17:03:56.226Z,13.30
2023-04-19T17:06:23.569Z,13.40
2023-04-19T17:08:50.888Z,13.20
2023-04-19T17:11:18.057Z,13.10
2023-04-19T17:13:45.232Z,13.00
2023-04-19T17:16:12.455Z,13.20
2023-04-19T17:18:39.703Z,13.30
2023-04-19T17:21:07.405Z,12.90
2023-04-19T17:23:34.558Z,12.30
2023-04-19T17:26:01.743Z,12.90
2023-04-19T17:28:28.935Z,13.00
2023-04-19T17:30:56.459Z,13.00
2023-04-19T17:33:23.782Z,12.70
2023-04-19T17:35:51.238Z,12.80
2023-04-19T17:38:18.425Z,12.90
2023-04-19T17:40:45.645Z,12.80
2023-04-19T17:43:13.764Z,12.90
2023-04-19T17:45:40.945Z,13.00
2023-04-19T17:48:08.245Z,13.00
2023-04-19T17:50:35.859Z,12.70
2023-04-19T17:53:03.115Z,12.80
2023-04-19T17:55:30.380Z,12.60
2023-04-19T17:57:57.586Z,12.80
2023-04-19T18:00:24.942Z,12.50
2023-04-19T18:02:52.296Z,12.10
2023-04-19T18:05:19.580Z,12.60
2023-04-19T18:07:47.028Z,12.60
2023-04-19T18:10:14.224Z,12.40
2023-04-19T18:12:41.488Z,12.30
2023-04-19T18:15:09.101Z,12.40
2023-04-19T18:17:36.512Z,12.70
2023-04-19T18:20:06.787Z,12.70
2023-04-19T18:22:33.993Z,12.70
2023-04-19T18:25:01.248Z,12.40
2023-04-19T18:27:29.700Z,12.70
2023-04-19T18:29:58.930Z,12.70
2023-04-19T18:32:28.648Z,12.50
2023-04-19T18:34:55.904Z,12.60
2023-04-19T18:37:23.100Z,12.80
2023-04-19T18:39:50.424Z,12.90
2023-04-19T18:42:18.081Z,12.70
2023-04-19T18:44:53.932Z,12.50
2023-04-19T18:47:22.163Z,13.00
2023-04-19T18:50:03.520Z,12.80
2023-04-19T18:52:32.991Z,12.90
2023-04-19T18:55:00.642Z,12.70
2023-04-19T18:57:28.206Z,12.90
2023-04-19T18:59:58.829Z,12.60
2023-04-19T19:02:27.551Z,12.60
2023-04-19T19:04:57.829Z,13.00
2023-04-19T19:09:57.026Z,13.10
2023-04-19T19:12:24.443Z,13.10
2023-04-19T19:14:52.004Z,13.10
2023-04-19T19:17:19.362Z,13.20
2023-04-19T19:19:46.556Z,13.20
2023-04-19T19:24:43.865Z,13.30
2023-04-19T19:27:11.219Z,13.20
2023-04-19T19:29:38.396Z,13.20
2023-04-19T19:32:08.189Z,13.20
2023-04-19T19:34:51.168Z,13.10
2023-04-19T19:37:21.544Z,13.00
2023-04-19T19:39:48.735Z,13.10
2023-04-19T19:42:19.116Z,12.50
2023-04-19T19:44:46.364Z,12.80
2023-04-19T19:47:15.307Z,12.50
2023-04-19T19:50:08.843Z,12.30
2023-04-19T19:52:31.955Z,12.70
2023-04-19T19:54:59.860Z,12.20
2023-04-19T20:00:03.133Z,12.60
2023-04-19T20:02:54.696Z,12.20
2023-04-19T20:05:23.396Z,12.40
2023-04-19T20:10:21.269Z,12.20
2023-04-19T20:12:48.555Z,11.70
2023-04-19T20:15:15.881Z,11.70
2023-04-19T20:17:44.183Z,11.90
2023-04-19T20:20:12.028Z,12.00
2023-04-19T20:22:39.209Z,11.70
2023-04-19T20:25:06.762Z,12.20
2023-04-19T20:27:34.166Z,12.30
2023-04-19T20:30:01.373Z,12.60
2023-04-19T20:32:28.639Z,12.20
2023-04-19T20:34:55.860Z,12.30
2023-04-19T20:37:23.366Z,12.50
2023-04-19T20:39:50.650Z,12.50
2023-04-19T20:42:17.866Z,12.00
2023-04-19T20:44:45.053Z,11.70
2023-04-19T20:47:12.932Z,12.40
2023-04-19T20:49:40.995Z,12.50
2023-04-19T20:52:08.213Z,12.10
2023-04-19T20:54:36.556Z,12.00
2023-04-19T20:57:04.630Z,12.10
2023-04-19T20:59:32.040Z,12.30
2023-04-19T21:02:00.109Z,12.00
2023-04-19T21:04:27.866Z,11.90
2023-04-19T21:06:55.185Z,11.50
2023-04-19T21:09:22.570Z,11.50
2023-04-19T21:11:49.780Z,11.10
2023-04-19T21:14:16.981Z,11.80
2023-04-19T21:16:44.120Z,12.30
2023-04-19T21:19:11.302Z,12.00
2023-04-19T21:21:38.502Z,11.80
2023-04-19T21:24:06.774Z,11.80
2023-04-19T21:26:33.990Z,11.80
2023-04-19T21:29:01.187Z,11.40
2023-04-19T21:31:28.375Z,12.00
2023-04-19T21:33:55.737Z,11.40
2023-04-19T21:36:22.904Z,11.90
2023-04-19T21:38:50.196Z,11.40
2023-04-19T21:41:17.377Z,11.90
2023-04-19T21:43:45.346Z,11.60
2023-04-19T21:46:12.571Z,11.90
2023-04-19T21:48:39.810Z,11.70
2023-04-19T21:51:07.027Z,11.50
2023-04-19T21:53:34.209Z,11.60
2023-04-19T21:56:02.915Z,11.80
2023-04-19T21:58:30.167Z,12.10
2023-04-19T22:00:57.430Z,12.10
2023-04-19T22:03:24.826Z,11.60
2023-04-19T22:05:52.122Z,11.30
2023-04-19T22:08:19.353Z,11.60
2023-04-19T22:10:46.560Z,11.40
2023-04-19T22:13:14.023Z,11.80
2023-04-19T22:15:42.487Z,11.60
2023-04-19T22:18:09.991Z,11.40
2023-04-19T22:20:38.342Z,12.00
2023-04-19T22:23:05.567Z,12.00
2023-04-19T22:25:32.742Z,11.90
2023-04-19T22:27:59.952Z,11.80
2023-04-19T22:30:27.262Z,11.70
2023-04-19T22:32:54.538Z,11.80
2023-04-19T22:35:22.878Z,11.60
2023-04-19T22:37:50.398Z,11.40
2023-04-19T22:40:17.559Z,11.70
2023-04-19T22:42:44.734Z,11.20
2023-04-19T22:45:12.024Z,11.10
2023-04-19T22:47:39.327Z,11.50
2023-04-19T22:50:07.505Z,11.20
2023-04-19T22:52:35.183Z,11.70
2023-04-19T22:55:02.371Z,11.80
2023-04-19T22:57:29.603Z,11.90
2023-04-19T22:59:56.837Z,11.30
2023-04-19T23:02:24.038Z,11.20
2023-04-19T23:04:52.071Z,11.30
2023-04-19T23:07:20.905Z,11.50
2023-04-19T23:09:48.206Z,11.60
2023-04-19T23:12:15.694Z,11.60
2023-04-19T23:14:43.116Z,11.30
2023-04-19T23:17:10.329Z,11.30
2023-04-19T23:19:38.728Z,11.50
2023-04-19T23:22:06.334Z,11.20
2023-04-19T23:24:36.013Z,11.00
2023-04-19T23:27:03.539Z,10.90
2023-04-19T23:29:30.887Z,10.80
2023-04-19T23:31:58.524Z,10.80
2023-04-19T23:34:25.854Z,11.20
2023-04-19T23:36:53.047Z,10.40
2023-04-19T23:39:20.380Z,10.90
2023-04-19T23:41:47.681Z,10.50
2023-04-19T23:44:14.974Z,10.20
2023-04-19T23:46:42.187Z,10.30
2023-04-19T23:49:09.425Z,10.30
2023-04-19T23:51:36.969Z,10.60
2023-04-19T23:54:04.285Z,10.60
2023-04-19T23:56:31.560Z,10.90
2023-04-19T23:58:58.802Z,10.60
